Terminal Aerodrome Forecast
Issued by NWS Bismarck, ND

Home | Current Version | Previous Version | Graphics & Text | Print | Product List | Glossary On
Versions: 1 2 3 4 5 6 7 8 9 10 11 12 13 14 15 16 17 18 19
000
FTUS43 KBIS 250100 AAA
TAFBIS
TAF AMD
KBIS 250103Z 2501/2524 29019G28KT 2SM -SN OVC018
     FM250500 31020G29KT P6SM OVC013
     FM252000 33021G30KT P6SM SCT050
     FM252300 32019G28KT P6SM BKN050=

USA.gov is the U.S. government's official web portal to all federal, state and local government web resources and services.